createdAt,value
2023-03-21T00:03:58.069Z,358.54
2023-03-21T00:09:05.091Z,358.45
2023-03-21T00:14:12.305Z,359.11
2023-03-21T00:19:19.587Z,358.97
2023-03-21T00:25:01.900Z,358.96
2023-03-21T00:30:09.275Z,359.42
2023-03-21T00:35:51.682Z,360.00
2023-03-21T00:45:39.729Z,360.77
2023-03-21T00:51:04.674Z,360.94
2023-03-21T00:56:38.572Z,362.03
2023-03-21T01:02:05.572Z,362.59
2023-03-21T01:07:53.173Z,363.52
2023-03-21T01:18:20.662Z,364.23
2023-03-21T01:23:43.758Z,363.77
2023-03-21T01:28:59.054Z,364.20
2023-03-21T01:32:37.485Z,364.03
2023-03-21T01:34:14.072Z,363.90
2023-03-21T01:39:18.165Z,363.98
2023-03-21T01:44:30.389Z,363.52
2023-03-21T01:49:37.970Z,364.01
2023-03-21T01:55:00.353Z,364.05
2023-03-21T02:00:07.776Z,365.37
2023-03-21T02:05:15.659Z,365.36
2023-03-21T02:10:23.174Z,365.52
2023-03-21T02:15:30.704Z,366.31
2023-03-21T02:20:38.420Z,366.53
2023-03-21T02:27:20.501Z,366.72
2023-03-21T02:30:59.189Z,366.83
2023-03-21T02:36:13.916Z,366.70
2023-03-21T02:41:19.083Z,367.37
2023-03-21T02:46:24.281Z,368.06
2023-03-21T02:51:28.284Z,369.00
2023-03-21T02:56:35.874Z,368.75
2023-03-21T03:01:52.265Z,369.35
2023-03-21T03:06:59.547Z,369.65
2023-03-21T03:12:06.977Z,369.60
2023-03-21T03:17:14.499Z,368.80
2023-03-21T03:22:21.679Z,368.68
2023-03-21T03:27:28.932Z,369.33
2023-03-21T03:32:36.233Z,369.80
2023-03-21T03:37:43.401Z,369.02
2023-03-21T03:42:50.558Z,368.50
2023-03-21T03:47:57.848Z,368.59
2023-03-21T03:53:16.233Z,368.04
2023-03-21T03:58:21.802Z,368.02
2023-03-21T04:03:19.646Z,368.51
2023-03-21T04:08:26.860Z,368.28
2023-03-21T04:13:34.111Z,368.31
2023-03-21T04:18:41.460Z,367.71
2023-03-21T04:23:48.748Z,367.21
2023-03-21T04:28:59.335Z,367.14
2023-03-21T04:34:07.083Z,366.69
2023-03-21T04:39:14.484Z,366.81
2023-03-21T04:44:25.424Z,367.15
2023-03-21T04:49:32.982Z,367.45
2023-03-21T04:54:40.443Z,368.09
2023-03-21T04:59:52.695Z,367.79
2023-03-21T05:05:00.176Z,367.82
2023-03-21T05:10:07.944Z,368.08
2023-03-21T05:15:24.426Z,367.78
2023-03-21T05:20:31.926Z,367.82
2023-03-21T05:25:39.841Z,367.85
2023-03-21T05:30:46.985Z,367.55
2023-03-21T05:35:58.312Z,368.62
2023-03-21T05:41:05.866Z,368.76
2023-03-21T05:46:13.403Z,369.06
2023-03-21T05:51:21.006Z,369.40
2023-03-21T05:56:28.372Z,369.14
2023-03-21T06:01:35.766Z,369.00
2023-03-21T06:06:43.290Z,369.96
2023-03-21T06:11:50.618Z,370.21
2023-03-21T06:16:58.029Z,370.31
2023-03-21T06:22:05.853Z,370.41
2023-03-21T06:27:13.256Z,369.61
2023-03-21T06:32:20.659Z,368.87
2023-03-21T06:37:38.438Z,369.28
2023-03-21T06:42:45.865Z,369.00
2023-03-21T06:47:53.265Z,368.81
2023-03-21T06:53:00.859Z,368.54
2023-03-21T06:58:08.344Z,368.23
2023-03-21T07:03:15.928Z,368.08
2023-03-21T07:08:23.401Z,368.60
2023-03-21T07:13:30.866Z,367.90
2023-03-21T07:18:38.582Z,368.02
2023-03-21T07:23:46.145Z,368.36
2023-03-21T07:28:53.594Z,368.84
2023-03-21T07:34:01.090Z,368.77
2023-03-21T07:39:08.587Z,368.62
2023-03-21T07:44:16.034Z,368.50
2023-03-21T07:49:23.356Z,368.15
2023-03-21T07:54:31.457Z,368.26
2023-03-21T07:59:38.852Z,367.64
2023-03-21T08:05:03.693Z,368.09
2023-03-21T08:09:58.972Z,367.76
2023-03-21T08:15:06.306Z,368.22
2023-03-21T08:20:13.712Z,368.00
2023-03-21T08:25:21.234Z,368.48
2023-03-21T08:30:28.956Z,367.87
2023-03-21T08:35:40.377Z,368.21
2023-03-21T08:40:44.469Z,368.50
2023-03-21T08:45:51.672Z,369.13
2023-03-21T08:50:59.115Z,370.09
2023-03-21T08:56:06.403Z,370.60
2023-03-21T09:01:13.670Z,371.20
2023-03-21T09:06:20.960Z,371.66
2023-03-21T09:11:28.303Z,371.25
2023-03-21T09:16:35.712Z,371.25
2023-03-21T09:21:43.046Z,371.56
2023-03-21T09:26:50.511Z,371.71
2023-03-21T09:31:57.759Z,371.97
2023-03-21T09:37:04.974Z,372.18
2023-03-21T09:42:15.083Z,372.20
2023-03-21T09:47:19.506Z,372.26
2023-03-21T09:52:26.775Z,372.45
2023-03-21T09:57:34.033Z,373.12
2023-03-21T10:02:41.207Z,373.37
2023-03-21T10:07:48.468Z,373.73
2023-03-21T10:12:55.894Z,373.85
2023-03-21T10:18:03.135Z,374.88
2023-03-21T10:23:10.591Z,375.30
2023-03-21T10:28:17.672Z,375.72
2023-03-21T10:33:24.873Z,375.60
2023-03-21T10:38:32.239Z,376.00
2023-03-21T10:43:39.576Z,375.99
2023-03-21T10:48:47.361Z,376.67
2023-03-21T10:53:54.228Z,377.71
2023-03-21T10:59:01.512Z,378.30
2023-03-21T11:04:08.689Z,378.80
2023-03-21T11:09:15.933Z,378.31
2023-03-21T11:14:23.407Z,379.10
2023-03-21T11:19:30.670Z,378.60
2023-03-21T11:24:37.978Z,378.33
2023-03-21T11:29:45.312Z,377.95
2023-03-21T11:34:52.747Z,377.74
2023-03-21T11:40:00.188Z,378.60
2023-03-21T11:45:07.513Z,378.72
2023-03-21T11:50:14.886Z,378.56
2023-03-21T11:55:22.196Z,379.17
2023-03-21T12:00:30.611Z,379.23
2023-03-21T12:05:39.514Z,380.23
2023-03-21T12:10:51.308Z,380.44
2023-03-21T12:15:59.077Z,381.09
2023-03-21T12:21:11.086Z,381.54
2023-03-21T12:26:18.501Z,382.31
2023-03-21T12:31:25.997Z,382.81
2023-03-21T12:36:33.143Z,383.17
2023-03-21T12:41:40.506Z,383.90
2023-03-21T12:46:48.062Z,383.49
2023-03-21T12:51:55.223Z,383.34
2023-03-21T12:57:02.706Z,383.92
2023-03-21T13:02:10.305Z,383.72
2023-03-21T13:07:17.646Z,384.05
2023-03-21T13:12:25.263Z,384.64
2023-03-21T13:17:45.672Z,384.80
2023-03-21T13:22:53.093Z,384.99
2023-03-21T13:28:10.099Z,385.08
2023-03-21T13:33:17.682Z,385.86
2023-03-21T13:38:25.214Z,386.34
2023-03-21T13:43:32.954Z,387.09
2023-03-21T13:49:00.013Z,387.65
2023-03-21T13:54:02.837Z,388.57
2023-03-21T13:59:10.286Z,389.11
2023-03-21T14:04:17.781Z,388.70
2023-03-21T14:09:25.237Z,389.84
2023-03-21T14:14:32.563Z,389.97
2023-03-21T14:19:40.190Z,390.23
2023-03-21T14:24:50.805Z,390.37
2023-03-21T14:29:58.118Z,390.08
2023-03-21T14:35:05.663Z,390.56
2023-03-21T14:40:12.828Z,391.37
2023-03-21T14:45:23.696Z,391.18
2023-03-21T14:50:33.242Z,391.67
2023-03-21T14:55:39.818Z,391.83
2023-03-21T15:00:46.978Z,391.47
2023-03-21T15:05:59.314Z,391.69
2023-03-21T15:11:07.709Z,392.37
2023-03-21T15:16:14.201Z,392.18
2023-03-21T15:21:21.645Z,392.72
2023-03-21T15:26:29.061Z,392.11
2023-03-21T15:31:41.421Z,393.11
2023-03-21T15:36:48.931Z,392.86
2023-03-21T15:41:56.155Z,392.79
2023-03-21T15:47:03.464Z,392.81
2023-03-21T15:52:11.003Z,393.10
2023-03-21T15:57:18.319Z,392.81
2023-03-21T16:02:25.672Z,393.35
2023-03-21T16:07:33.125Z,392.98
2023-03-21T16:12:40.308Z,393.12
2023-03-21T16:17:47.676Z,393.12
2023-03-21T16:22:55.079Z,392.79
2023-03-21T16:28:02.328Z,392.20
2023-03-21T16:33:09.609Z,391.98
2023-03-21T16:38:16.921Z,392.08
2023-03-21T16:43:24.178Z,391.57
2023-03-21T16:48:32.187Z,391.57
2023-03-21T16:53:39.361Z,391.47
2023-03-21T16:58:46.622Z,391.10
2023-03-21T17:03:53.957Z,390.81
2023-03-21T17:09:01.232Z,390.91
2023-03-21T17:14:08.408Z,390.59
2023-03-21T17:19:15.645Z,390.22
2023-03-21T17:24:23.007Z,389.12
2023-03-21T17:29:30.378Z,389.04
2023-03-21T17:34:37.851Z,388.59
2023-03-21T17:39:45.329Z,388.62
2023-03-21T17:44:52.748Z,387.78
2023-03-21T17:50:00.271Z,388.22
2023-03-21T17:55:08.052Z,388.62
2023-03-21T18:00:15.263Z,387.98
2023-03-21T18:05:22.810Z,387.77
2023-03-21T18:10:30.863Z,387.32
2023-03-21T18:15:38.584Z,387.80
2023-03-21T18:20:52.136Z,388.14
2023-03-21T18:25:53.498Z,387.67
2023-03-21T18:31:10.382Z,387.01
2023-03-21T18:36:08.293Z,386.59
2023-03-21T18:41:15.838Z,386.35
2023-03-21T18:46:23.512Z,385.93
2023-03-21T18:51:31.544Z,385.97
2023-03-21T19:01:46.744Z,385.39
2023-03-21T19:06:54.188Z,385.56
2023-03-21T19:12:01.975Z,385.18
2023-03-21T19:18:03.020Z,384.99
2023-03-21T19:22:18.161Z,384.98
2023-03-21T19:27:26.050Z,384.44
2023-03-21T19:32:33.889Z,384.70
2023-03-21T19:37:41.610Z,384.46
2023-03-21T19:42:49.261Z,384.20
2023-03-21T19:47:57.019Z,384.77
2023-03-21T19:53:04.655Z,384.56
2023-03-21T19:58:12.400Z,384.01
2023-03-21T20:03:20.181Z,384.20
2023-03-21T20:08:27.711Z,384.48
2023-03-21T20:13:35.449Z,384.73
2023-03-21T20:18:43.037Z,384.47
2023-03-21T20:23:50.458Z,384.71
2023-03-21T20:29:28.050Z,384.61
2023-03-21T20:34:05.722Z,384.00
2023-03-21T20:39:13.386Z,383.99
2023-03-21T20:44:48.118Z,384.52
2023-03-21T20:49:28.829Z,384.32
2023-03-21T20:54:36.167Z,384.32
2023-03-21T20:59:43.677Z,384.33
2023-03-21T21:05:21.494Z,384.42
2023-03-21T21:09:59.157Z,384.73
2023-03-21T21:15:06.666Z,385.53
2023-03-21T21:20:13.902Z,385.45
2023-03-21T21:25:21.118Z,385.41
2023-03-21T21:30:28.427Z,385.67
2023-03-21T21:35:35.718Z,386.18
2023-03-21T21:40:42.861Z,386.14
2023-03-21T21:45:50.087Z,386.89
2023-03-21T21:50:57.343Z,386.84
2023-03-21T21:56:04.645Z,387.09
2023-03-21T22:01:11.991Z,386.89
2023-03-21T22:06:19.076Z,386.47
2023-03-21T22:11:26.368Z,385.98
2023-03-21T22:16:33.785Z,386.08
2023-03-21T22:21:40.817Z,385.69
2023-03-21T22:26:48.224Z,385.52
2023-03-21T22:31:55.349Z,385.87
2023-03-21T22:37:02.557Z,385.58
2023-03-21T22:42:09.883Z,385.56
2023-03-21T22:47:17.083Z,386.64
2023-03-21T22:52:24.312Z,386.37
2023-03-21T22:57:31.531Z,385.78
2023-03-21T23:02:38.937Z,385.68
2023-03-21T23:07:55.431Z,385.57
2023-03-21T23:12:59.495Z,386.67
2023-03-21T23:18:09.094Z,386.53
2023-03-21T23:23:14.955Z,386.21
2023-03-21T23:28:22.273Z,386.12
2023-03-21T23:33:29.589Z,385.92
2023-03-21T23:38:36.841Z,386.64
2023-03-21T23:43:44.170Z,386.97
2023-03-21T23:49:12.993Z,387.84
2023-03-21T23:54:25.513Z,387.42
2023-03-21T23:59:17.107Z,387.96
